createdAt,value
2023-05-08T00:01:43.396Z,16.43
2023-05-08T00:04:12.298Z,16.77
2023-05-08T00:06:40.796Z,15.87
2023-05-08T00:09:09.914Z,16.40
2023-05-08T00:11:38.967Z,15.50
2023-05-08T00:14:07.930Z,16.13
2023-05-08T00:16:37.750Z,15.77
2023-05-08T00:19:06.623Z,15.23
2023-05-08T00:21:35.017Z,16.67
2023-05-08T00:24:03.376Z,16.57
2023-05-08T00:26:31.937Z,15.60
2023-05-08T00:29:00.732Z,15.00
2023-05-08T00:31:29.099Z,15.03
2023-05-08T00:33:58.933Z,15.43
2023-05-08T00:36:28.491Z,15.07
2023-05-08T00:38:56.870Z,15.57
2023-05-08T00:41:25.323Z,15.97
2023-05-08T00:43:54.165Z,16.03
2023-05-08T00:46:23.035Z,16.40
2023-05-08T00:48:51.817Z,15.33
2023-05-08T00:51:22.273Z,16.07
2023-05-08T00:53:51.561Z,15.73
2023-05-08T00:56:22.037Z,15.90
2023-05-08T00:58:51.545Z,15.60
2023-05-08T01:01:20.658Z,15.93
2023-05-08T01:03:49.962Z,15.87
2023-05-08T01:06:20.649Z,15.50
2023-05-08T01:08:49.680Z,16.83
2023-05-08T01:11:25.594Z,16.97
2023-05-08T01:14:09.042Z,16.53
2023-05-08T01:16:45.527Z,15.20
2023-05-08T01:19:55.482Z,16.37
2023-05-08T01:22:47.888Z,17.17
2023-05-08T01:25:52.661Z,16.00
2023-05-08T01:29:14.455Z,17.57
2023-05-08T01:32:08.762Z,17.00
2023-05-08T01:34:46.516Z,17.27
2023-05-08T01:37:23.472Z,16.50
2023-05-08T01:40:00.775Z,16.77
2023-05-08T01:42:40.774Z,16.83
2023-05-08T01:45:15.723Z,18.23
2023-05-08T01:47:52.285Z,17.63
2023-05-08T01:50:28.249Z,17.97
2023-05-08T01:53:04.569Z,17.50
2023-05-08T01:55:37.320Z,17.20
2023-05-08T01:58:11.022Z,17.50
2023-05-08T02:00:42.144Z,18.50
2023-05-08T02:03:13.958Z,19.00
2023-05-08T02:05:44.372Z,18.57
2023-05-08T02:08:15.657Z,17.57
2023-05-08T02:10:46.414Z,18.97
2023-05-08T02:13:19.137Z,18.97
2023-05-08T02:15:49.906Z,18.40
2023-05-08T02:18:26.339Z,18.53
2023-05-08T02:20:57.447Z,18.47
2023-05-08T02:23:27.938Z,17.67
2023-05-08T02:25:57.370Z,17.90
2023-05-08T02:28:27.538Z,18.13
2023-05-08T02:30:58.130Z,17.30
2023-05-08T02:33:30.529Z,16.80
2023-05-08T02:36:00.479Z,18.23
2023-05-08T02:38:30.156Z,17.07
2023-05-08T02:41:03.502Z,17.97
2023-05-08T02:43:32.677Z,16.97
2023-05-08T02:46:10.884Z,16.97
2023-05-08T02:48:49.539Z,17.60
2023-05-08T02:51:28.147Z,16.83
2023-05-08T02:54:02.847Z,17.70
2023-05-08T02:56:40.482Z,17.40
2023-05-08T02:59:20.769Z,17.63
2023-05-08T03:01:58.182Z,17.80
2023-05-08T03:04:36.531Z,17.47
2023-05-08T03:07:06.652Z,18.30
2023-05-08T03:09:45.919Z,17.77
2023-05-08T03:12:24.733Z,17.47
2023-05-08T03:15:02.360Z,18.17
2023-05-08T03:17:34.925Z,18.20
2023-05-08T03:20:09.079Z,19.03
2023-05-08T03:22:40.136Z,18.27
2023-05-08T03:25:11.842Z,19.33
2023-05-08T03:27:41.646Z,18.80
2023-05-08T03:30:12.784Z,17.77
2023-05-08T03:32:43.423Z,18.57
2023-05-08T03:35:13.591Z,17.63
2023-05-08T03:37:42.868Z,18.50
2023-05-08T03:40:12.417Z,18.60
2023-05-08T03:42:43.151Z,19.27
2023-05-08T03:45:13.572Z,18.20
2023-05-08T03:47:44.315Z,18.77
2023-05-08T03:50:15.771Z,17.70
2023-05-08T03:52:44.888Z,17.23
2023-05-08T03:55:13.509Z,17.53
2023-05-08T03:57:49.536Z,17.93
2023-05-08T04:00:30.816Z,16.83
2023-05-08T04:03:17.001Z,17.27
2023-05-08T04:06:04.255Z,17.13
2023-05-08T04:08:43.356Z,16.63
2023-05-08T04:11:20.296Z,17.10
2023-05-08T04:14:03.251Z,16.73
2023-05-08T04:16:39.900Z,17.17
2023-05-08T04:19:13.579Z,16.40
2023-05-08T04:21:45.923Z,16.93
2023-05-08T04:24:16.704Z,15.90
2023-05-08T04:26:47.037Z,15.43
2023-05-08T04:29:16.078Z,16.23
2023-05-08T04:31:45.297Z,16.67
2023-05-08T04:34:14.190Z,15.70
2023-05-08T04:36:44.499Z,16.60
2023-05-08T04:39:12.927Z,16.93
2023-05-08T04:41:41.317Z,16.20
2023-05-08T04:44:09.891Z,16.63
2023-05-08T04:46:38.890Z,17.33
2023-05-08T04:49:07.485Z,16.37
2023-05-08T04:51:37.264Z,16.53
2023-05-08T04:54:07.244Z,16.87
2023-05-08T04:56:36.208Z,16.87
2023-05-08T04:59:04.579Z,16.53
2023-05-08T05:01:33.290Z,16.20
2023-05-08T05:04:01.874Z,16.53
2023-05-08T05:06:31.353Z,16.10
2023-05-08T05:08:59.786Z,16.60
2023-05-08T05:11:29.788Z,16.90
2023-05-08T05:13:58.199Z,16.63
2023-05-08T05:16:27.450Z,17.03
2023-05-08T05:18:56.767Z,16.50
2023-05-08T05:21:25.920Z,17.13
2023-05-08T05:23:54.907Z,16.60
2023-05-08T05:26:23.405Z,16.83
2023-05-08T05:28:53.260Z,16.20
2023-05-08T05:31:22.115Z,15.40
2023-05-08T05:33:51.168Z,16.30
2023-05-08T05:36:19.913Z,16.77
2023-05-08T05:38:48.887Z,17.03
2023-05-08T05:41:17.488Z,17.03
2023-05-08T05:43:45.883Z,18.20
2023-05-08T05:46:15.767Z,17.53
2023-05-08T05:48:44.385Z,16.77
2023-05-08T05:51:13.122Z,16.77
2023-05-08T05:53:41.651Z,16.30
2023-05-08T05:56:09.983Z,16.43
2023-05-08T05:58:40.492Z,16.10
2023-05-08T06:01:08.846Z,16.37
2023-05-08T06:03:39.623Z,15.20
2023-05-08T06:06:08.728Z,14.77
2023-05-08T06:08:37.189Z,15.00
2023-05-08T06:11:05.600Z,15.33
2023-05-08T06:13:34.059Z,15.60
2023-05-08T06:16:02.546Z,15.33
2023-05-08T06:18:31.439Z,16.23
2023-05-08T06:21:01.553Z,15.87
2023-05-08T06:23:30.216Z,14.90
2023-05-08T06:26:01.937Z,14.80
2023-05-08T06:28:30.311Z,15.30
2023-05-08T06:30:58.833Z,15.03
2023-05-08T06:33:27.993Z,14.63
2023-05-08T06:35:56.682Z,14.50
2023-05-08T06:38:27.064Z,14.33
2023-05-08T06:40:56.149Z,14.33
2023-05-08T06:43:24.918Z,14.20
2023-05-08T06:45:54.070Z,14.93
2023-05-08T06:48:22.709Z,14.37
2023-05-08T06:50:53.056Z,14.13
2023-05-08T06:53:22.188Z,14.00
2023-05-08T06:55:52.916Z,14.40
2023-05-08T06:58:21.425Z,14.63
2023-05-08T07:00:50.332Z,14.57
2023-05-08T07:03:19.057Z,13.50
2023-05-08T07:05:47.470Z,13.70
2023-05-08T07:08:15.954Z,14.50
2023-05-08T07:10:44.976Z,14.37
2023-05-08T07:13:14.864Z,15.17
2023-05-08T07:15:43.476Z,13.70
2023-05-08T07:18:12.099Z,14.23
2023-05-08T07:20:40.686Z,14.73
2023-05-08T07:23:09.953Z,13.63
2023-05-08T07:25:38.341Z,13.93
2023-05-08T07:28:08.095Z,14.33
2023-05-08T07:30:37.946Z,14.73
2023-05-08T07:33:06.775Z,14.53
2023-05-08T07:35:35.636Z,14.10
2023-05-08T07:38:04.110Z,13.60
2023-05-08T07:40:32.513Z,14.07
2023-05-08T07:43:01.182Z,13.90
2023-05-08T07:45:29.847Z,14.23
2023-05-08T07:48:00.601Z,14.60
2023-05-08T07:50:29.478Z,14.83
2023-05-08T07:52:58.028Z,14.07
2023-05-08T07:55:27.331Z,14.70
2023-05-08T07:57:56.045Z,14.53
2023-05-08T08:00:24.968Z,15.17
2023-05-08T08:02:54.074Z,15.03
2023-05-08T08:05:24.864Z,14.40
2023-05-08T08:07:53.935Z,15.00
2023-05-08T08:10:22.692Z,15.30
2023-05-08T08:12:51.486Z,15.03
2023-05-08T08:15:21.016Z,14.73
2023-05-08T08:17:49.804Z,14.53
2023-05-08T08:20:18.625Z,15.73
2023-05-08T08:22:48.665Z,14.33
2023-05-08T08:25:17.925Z,13.70
2023-05-08T08:27:46.350Z,14.13
2023-05-08T08:30:17.648Z,14.23
2023-05-08T08:32:49.668Z,14.70
2023-05-08T08:35:18.491Z,15.43
2023-05-08T08:37:48.453Z,13.83
2023-05-08T08:40:17.116Z,13.83
2023-05-08T08:42:46.312Z,15.47
2023-05-08T08:45:14.955Z,14.57
2023-05-08T08:47:47.016Z,14.23
2023-05-08T08:50:16.898Z,14.80
2023-05-08T08:52:57.280Z,14.70
2023-05-08T08:55:27.683Z,14.60
2023-05-08T08:58:07.246Z,14.77
2023-05-08T09:00:38.610Z,15.00
2023-05-08T09:03:08.028Z,14.33
2023-05-08T09:05:37.759Z,15.37
2023-05-08T09:08:08.324Z,14.93
2023-05-08T09:10:37.546Z,15.00
2023-05-08T09:13:06.074Z,15.03
2023-05-08T09:15:35.431Z,14.35
2023-05-08T09:18:04.192Z,14.67
2023-05-08T09:20:32.857Z,14.23
2023-05-08T09:23:03.915Z,15.20
2023-05-08T09:25:47.538Z,15.17
2023-05-08T09:28:21.017Z,14.70
2023-05-08T09:30:55.388Z,15.53
2023-05-08T09:33:26.202Z,15.83
2023-05-08T09:35:55.395Z,15.50
2023-05-08T09:38:38.618Z,16.00
2023-05-08T09:41:17.627Z,16.07
2023-05-08T09:44:02.010Z,16.30
2023-05-08T09:46:30.978Z,16.90
2023-05-08T09:49:01.591Z,15.70
2023-05-08T09:51:32.530Z,16.60
2023-05-08T09:54:04.306Z,16.43
2023-05-08T09:56:36.606Z,16.43
2023-05-08T09:59:06.904Z,15.90
2023-05-08T10:01:36.901Z,17.02
2023-05-08T10:04:06.461Z,17.27
2023-05-08T10:06:36.566Z,17.37
2023-05-08T10:09:10.416Z,16.90
2023-05-08T10:11:41.366Z,17.27
2023-05-08T10:14:10.403Z,16.15
2023-05-08T10:16:43.768Z,17.00
2023-05-08T10:19:16.347Z,16.20
2023-05-08T10:21:48.605Z,17.50
2023-05-08T10:24:19.751Z,16.80
2023-05-08T10:27:07.103Z,16.30
2023-05-08T10:29:44.025Z,16.77
2023-05-08T10:32:14.516Z,18.08
2023-05-08T10:34:45.455Z,16.98
2023-05-08T10:37:14.644Z,16.67
2023-05-08T10:39:46.102Z,15.93
2023-05-08T10:42:16.270Z,17.02
2023-05-08T10:44:45.087Z,16.67
2023-05-08T10:47:22.614Z,17.38
2023-05-08T10:50:03.936Z,16.98
2023-05-08T10:52:46.407Z,16.45
2023-05-08T10:55:22.760Z,16.17
2023-05-08T10:58:13.387Z,17.15
2023-05-08T11:01:14.816Z,16.55
2023-05-08T11:03:50.606Z,17.30
2023-05-08T11:06:46.806Z,16.45
2023-05-08T11:09:23.579Z,16.35
2023-05-08T11:12:17.975Z,18.00
2023-05-08T11:15:00.363Z,17.45
2023-05-08T11:17:29.032Z,17.60
2023-05-08T11:20:00.294Z,16.70
2023-05-08T11:22:31.444Z,16.83
2023-05-08T11:25:03.205Z,16.80
2023-05-08T11:27:55.016Z,17.20
2023-05-08T11:30:28.645Z,18.00
2023-05-08T11:33:16.727Z,18.00
2023-05-08T11:35:49.481Z,17.83
2023-05-08T11:38:22.387Z,18.25
2023-05-08T11:40:59.738Z,16.80
2023-05-08T11:43:48.561Z,16.67
2023-05-08T11:46:21.880Z,16.95
2023-05-08T11:48:50.730Z,17.30
2023-05-08T11:51:20.917Z,18.75
2023-05-08T11:53:50.049Z,18.25
2023-05-08T11:56:19.491Z,18.50
2023-05-08T11:58:48.194Z,19.13
2023-05-08T12:01:22.331Z,17.92
2023-05-08T12:03:51.014Z,18.38
2023-05-08T12:06:21.360Z,17.15
2023-05-08T12:08:50.253Z,18.83
2023-05-08T12:11:25.255Z,18.30
2023-05-08T12:13:55.241Z,17.23
2023-05-08T12:16:26.679Z,18.20
2023-05-08T12:18:58.232Z,16.80
2023-05-08T12:21:27.615Z,17.90
2023-05-08T12:23:56.389Z,16.40
2023-05-08T12:26:25.166Z,16.05
2023-05-08T12:28:57.012Z,16.13
2023-05-08T12:31:27.469Z,16.70
2023-05-08T12:33:56.691Z,16.30
2023-05-08T12:36:25.255Z,15.45
2023-05-08T12:38:54.081Z,15.32
2023-05-08T12:41:26.400Z,15.00
2023-05-08T12:43:55.199Z,14.90
2023-05-08T12:46:28.217Z,15.65
2023-05-08T12:49:04.722Z,15.10
2023-05-08T12:51:33.250Z,13.02
2023-05-08T12:54:01.647Z,10.50
2023-05-08T12:56:29.919Z,11.32
2023-05-08T12:59:00.951Z,10.88
2023-05-08T13:01:32.179Z,10.93
2023-05-08T13:04:03.042Z,10.45
2023-05-08T13:06:31.893Z,12.85
2023-05-08T13:09:00.303Z,14.13
2023-05-08T13:11:34.059Z,12.48
2023-05-08T13:14:02.614Z,11.68
2023-05-08T13:16:32.442Z,11.45
2023-05-08T13:19:00.741Z,11.32
2023-05-08T13:21:29.160Z,10.70
2023-05-08T13:23:58.096Z,10.93
2023-05-08T13:26:27.779Z,10.43
2023-05-08T13:28:56.714Z,9.73
2023-05-08T13:31:25.445Z,11.70
2023-05-08T13:33:55.229Z,11.23
2023-05-08T13:36:25.049Z,10.88
2023-05-08T13:38:55.315Z,10.38
2023-05-08T13:41:23.838Z,10.10
2023-05-08T13:43:52.862Z,11.45
2023-05-08T13:46:21.616Z,12.40
2023-05-08T13:48:50.280Z,12.27
2023-05-08T13:51:20.331Z,10.48
2023-05-08T13:53:48.749Z,11.57
2023-05-08T13:56:17.198Z,10.52
2023-05-08T13:58:45.584Z,12.15
2023-05-08T14:01:25.482Z,12.20
2023-05-08T14:03:55.559Z,12.32
2023-05-08T14:06:26.134Z,14.50
2023-05-08T14:08:56.886Z,13.98
2023-05-08T14:11:26.980Z,14.73
2023-05-08T14:13:55.931Z,13.68
2023-05-08T14:16:25.073Z,11.25
2023-05-08T14:18:54.130Z,11.25
2023-05-08T14:21:24.582Z,11.88
2023-05-08T14:23:53.471Z,12.02
2023-05-08T14:26:22.260Z,12.23
2023-05-08T14:28:51.436Z,12.30
2023-05-08T14:31:20.278Z,12.98
2023-05-08T14:33:48.834Z,16.20
2023-05-08T14:36:17.374Z,15.48
2023-05-08T14:38:47.117Z,15.35
2023-05-08T14:41:15.662Z,14.18
2023-05-08T14:43:44.073Z,14.98
2023-05-08T14:46:12.670Z,15.18
2023-05-08T14:48:41.255Z,13.57
2023-05-08T14:51:09.673Z,13.50
2023-05-08T14:53:38.136Z,13.60
2023-05-08T14:56:09.184Z,14.57
2023-05-08T14:58:37.822Z,13.70
2023-05-08T15:01:06.923Z,13.85
2023-05-08T15:03:35.892Z,14.27
2023-05-08T15:06:05.295Z,14.52
2023-05-08T15:08:34.115Z,13.43
2023-05-08T15:11:02.571Z,14.18
2023-05-08T15:13:32.414Z,13.65
2023-05-08T15:16:05.482Z,13.13
2023-05-08T15:18:33.972Z,13.60
2023-05-08T15:21:02.599Z,13.88
2023-05-08T15:23:30.935Z,13.38
2023-05-08T15:25:59.432Z,14.13
2023-05-08T15:28:28.232Z,13.40
2023-05-08T15:30:58.485Z,13.63
2023-05-08T15:33:28.106Z,14.60
2023-05-08T15:35:56.567Z,14.88
2023-05-08T15:38:25.232Z,14.77
2023-05-08T15:40:54.004Z,14.85
2023-05-08T15:43:23.543Z,15.13
2023-05-08T15:45:52.625Z,13.20
2023-05-08T15:48:23.534Z,12.13
2023-05-08T15:50:51.915Z,11.82
2023-05-08T15:53:20.877Z,12.00
2023-05-08T15:55:49.329Z,10.82
2023-05-08T15:58:17.779Z,7.30
2023-05-08T16:00:46.381Z,11.63
2023-05-08T16:03:15.021Z,7.85
2023-05-08T16:05:44.968Z,7.03
2023-05-08T16:08:13.862Z,6.25
2023-05-08T16:10:42.923Z,5.07
2023-05-08T16:13:11.372Z,5.30
2023-05-08T16:15:40.887Z,6.63
2023-05-08T16:18:09.559Z,8.55
2023-05-08T16:20:38.063Z,8.98
2023-05-08T16:23:08.654Z,7.97
2023-05-08T16:25:37.064Z,8.45
2023-05-08T16:28:07.238Z,8.48
2023-05-08T16:30:35.669Z,7.47
2023-05-08T16:33:04.264Z,6.70
2023-05-08T16:35:33.510Z,6.75
2023-05-08T16:38:03.932Z,7.15
2023-05-08T16:40:34.325Z,6.90
2023-05-08T16:43:03.622Z,6.38
2023-05-08T16:45:32.041Z,6.28
2023-05-08T16:48:09.735Z,6.13
2023-05-08T16:50:38.283Z,5.82
2023-05-08T16:53:06.766Z,6.40
2023-05-08T16:55:36.662Z,7.00
2023-05-08T16:58:07.371Z,6.00
2023-05-08T17:00:35.806Z,6.35
2023-05-08T17:03:05.855Z,7.10
2023-05-08T17:05:35.726Z,9.07
2023-05-08T17:08:04.166Z,9.02
2023-05-08T17:10:32.777Z,10.52
2023-05-08T17:13:02.773Z,9.98
2023-05-08T17:15:31.255Z,11.13
2023-05-08T17:17:59.633Z,10.85
2023-05-08T17:20:28.670Z,11.50
2023-05-08T17:22:57.577Z,11.18
2023-05-08T17:25:26.788Z,12.98
2023-05-08T17:27:56.320Z,13.30
2023-05-08T17:30:27.612Z,13.50
2023-05-08T17:32:56.823Z,13.15
2023-05-08T17:35:26.554Z,14.85
2023-05-08T17:37:55.357Z,16.23
2023-05-08T17:40:26.686Z,15.15
2023-05-08T17:42:55.265Z,16.17
2023-05-08T17:45:25.329Z,15.15
2023-05-08T17:47:53.972Z,16.60
2023-05-08T17:50:23.143Z,14.87
2023-05-08T17:52:51.698Z,13.90
2023-05-08T17:55:20.269Z,15.35
2023-05-08T17:57:48.827Z,15.05
2023-05-08T18:00:18.463Z,14.98
2023-05-08T18:02:48.275Z,16.30
2023-05-08T18:05:16.893Z,14.70
2023-05-08T18:07:45.304Z,14.27
2023-05-08T18:10:13.825Z,14.80
2023-05-08T18:12:42.590Z,16.38
2023-05-08T18:15:12.263Z,15.40
2023-05-08T18:17:41.046Z,14.17
2023-05-08T18:20:12.393Z,15.13
2023-05-08T18:22:41.045Z,14.73
2023-05-08T18:25:10.422Z,14.77
2023-05-08T18:27:38.810Z,16.20
2023-05-08T18:30:10.093Z,15.77
2023-05-08T18:32:38.516Z,15.53
2023-05-08T18:35:11.656Z,15.17
2023-05-08T18:37:39.950Z,15.53
2023-05-08T18:40:10.122Z,15.63
2023-05-08T18:42:38.586Z,15.90
2023-05-08T18:45:09.161Z,15.47
2023-05-08T18:47:37.534Z,13.80
2023-05-08T18:50:11.773Z,16.80
2023-05-08T18:52:40.856Z,15.03
2023-05-08T18:55:10.430Z,16.10
2023-05-08T18:57:39.219Z,15.73
2023-05-08T19:00:09.612Z,14.97
2023-05-08T19:02:38.183Z,16.20
2023-05-08T19:05:09.195Z,15.00
2023-05-08T19:07:39.187Z,15.03
2023-05-08T19:10:10.016Z,15.07
2023-05-08T19:12:38.509Z,14.77
2023-05-08T19:15:09.449Z,13.67
2023-05-08T19:17:38.094Z,15.03
2023-05-08T19:20:09.752Z,16.10
2023-05-08T19:22:39.838Z,14.13
2023-05-08T19:25:09.053Z,15.70
2023-05-08T19:27:37.500Z,16.00
2023-05-08T19:30:08.528Z,17.57
2023-05-08T19:32:37.189Z,16.57
2023-05-08T19:35:06.781Z,17.03
2023-05-08T19:37:35.439Z,17.73
2023-05-08T19:40:06.055Z,17.47
2023-05-08T19:42:34.657Z,18.83
2023-05-08T19:45:03.136Z,17.57
2023-05-08T19:47:31.953Z,21.23
2023-05-08T19:50:00.425Z,19.13
2023-05-08T19:52:28.978Z,20.33
2023-05-08T19:54:58.656Z,22.33
2023-05-08T19:57:28.804Z,22.10
2023-05-08T19:59:58.072Z,23.97
2023-05-08T20:02:28.191Z,28.43
2023-05-08T20:07:29.654Z,26.97
2023-05-08T20:09:58.769Z,25.37
2023-05-08T20:12:28.894Z,26.73
2023-05-08T20:14:57.977Z,25.63
2023-05-08T20:17:26.939Z,25.57
2023-05-08T20:19:55.560Z,24.40
2023-05-08T20:22:25.441Z,24.40
2023-05-08T20:24:53.979Z,21.80
2023-05-08T20:27:23.481Z,23.90
2023-05-08T20:29:53.767Z,23.20
2023-05-08T20:32:22.965Z,21.57
2023-05-08T20:34:52.056Z,21.53
2023-05-08T20:37:20.889Z,21.20
2023-05-08T20:39:49.256Z,23.07
2023-05-08T20:42:17.719Z,22.60
2023-05-08T20:44:46.100Z,24.47
2023-05-08T20:47:15.947Z,25.93
2023-05-08T20:49:44.266Z,24.83
2023-05-08T20:52:12.558Z,25.60
2023-05-08T20:54:41.104Z,24.77
2023-05-08T20:57:09.689Z,26.13
2023-05-08T20:59:39.948Z,25.30
2023-05-08T21:02:08.749Z,24.47
2023-05-08T21:04:38.570Z,24.63
2023-05-08T21:07:07.205Z,26.20
2023-05-08T21:09:35.735Z,24.63
2023-05-08T21:12:04.311Z,26.80
2023-05-08T21:14:32.802Z,24.47
2023-05-08T21:17:01.398Z,27.03
2023-05-08T21:19:31.267Z,25.13
2023-05-08T21:22:01.028Z,28.17
2023-05-08T21:24:29.708Z,24.43
2023-05-08T21:26:59.651Z,22.67
2023-05-08T21:29:28.598Z,24.17
2023-05-08T21:31:57.682Z,24.80
2023-05-08T21:34:26.707Z,23.17
2023-05-08T21:36:55.348Z,24.87
2023-05-08T21:39:25.253Z,24.47
2023-05-08T21:41:53.678Z,22.97
2023-05-08T21:44:22.706Z,25.03
2023-05-08T21:46:51.639Z,20.97
2023-05-08T21:49:23.751Z,20.37
2023-05-08T21:51:53.030Z,20.73
2023-05-08T21:54:24.679Z,22.63
2023-05-08T21:56:55.423Z,20.97
2023-05-08T21:59:23.787Z,23.90
2023-05-08T22:01:53.086Z,24.03
2023-05-08T22:04:22.301Z,23.90
2023-05-08T22:06:50.847Z,23.20
2023-05-08T22:09:19.707Z,24.33
2023-05-08T22:11:48.152Z,23.83
2023-05-08T22:14:17.935Z,24.27
2023-05-08T22:16:46.351Z,26.07
2023-05-08T22:19:14.653Z,23.27
2023-05-08T22:21:43.566Z,26.47
2023-05-08T22:24:12.446Z,24.93
2023-05-08T22:26:40.746Z,26.60
2023-05-08T22:29:12.034Z,26.50
2023-05-08T22:31:42.005Z,26.70
2023-05-08T22:34:10.517Z,25.77
2023-05-08T22:36:39.143Z,25.30
2023-05-08T22:39:10.114Z,24.63
2023-05-08T22:41:38.832Z,24.37
2023-05-08T22:44:08.044Z,25.13
2023-05-08T22:46:37.090Z,24.23
2023-05-08T22:49:07.348Z,26.80
2023-05-08T22:51:36.201Z,25.60
2023-05-08T22:54:04.653Z,24.27
2023-05-08T22:56:33.064Z,26.03
2023-05-08T22:59:01.360Z,25.63
2023-05-08T23:01:29.806Z,26.43
2023-05-08T23:03:58.488Z,25.57
2023-05-08T23:06:28.521Z,27.90
2023-05-08T23:08:56.860Z,26.00
2023-05-08T23:11:26.891Z,27.13
2023-05-08T23:13:55.484Z,28.67
2023-05-08T23:16:23.956Z,26.47
2023-05-08T23:18:53.019Z,29.30
2023-05-08T23:21:21.696Z,28.43
2023-05-08T23:23:52.910Z,29.60
2023-05-08T23:26:22.288Z,31.13
2023-05-08T23:28:50.704Z,29.90
2023-05-08T23:31:19.845Z,33.97
2023-05-08T23:33:48.445Z,27.93
2023-05-08T23:36:17.000Z,31.20
2023-05-08T23:38:45.505Z,34.57
2023-05-08T23:41:15.467Z,33.30
2023-05-08T23:43:43.904Z,32.90
2023-05-08T23:46:12.272Z,31.97
2023-05-08T23:48:40.936Z,33.07
2023-05-08T23:51:12.213Z,30.73
2023-05-08T23:53:40.930Z,30.80
2023-05-08T23:56:09.657Z,31.73
2023-05-08T23:58:39.805Z,30.33
